createdAt,value
2023-02-15T00:01:55.108Z,101199.75
2023-02-15T00:04:50.205Z,101196.72
2023-02-15T00:07:23.935Z,101205.16
2023-02-15T00:09:57.624Z,101196.06
2023-02-15T00:12:28.138Z,101206.16
2023-02-15T00:14:59.052Z,101202.50
2023-02-15T00:17:30.839Z,101200.47
2023-02-15T00:20:01.758Z,101207.88
2023-02-15T00:22:32.633Z,101204.19
2023-02-15T00:25:03.427Z,101206.19
2023-02-15T00:27:36.615Z,101212.59
2023-02-15T00:30:08.566Z,101206.09
2023-02-15T00:32:39.199Z,101213.69
2023-02-15T00:35:11.166Z,101210.34
2023-02-15T00:37:42.105Z,101211.19
2023-02-15T00:40:12.714Z,101216.41
2023-02-15T00:42:43.668Z,101215.25
2023-02-15T00:45:16.543Z,101230.22
2023-02-15T00:47:49.349Z,101224.81
2023-02-15T00:50:21.847Z,101225.16
2023-02-15T00:52:54.737Z,101222.84
2023-02-15T00:55:25.843Z,101225.88
2023-02-15T00:57:56.168Z,101226.38
2023-02-15T01:00:27.019Z,101220.81
2023-02-15T01:02:57.341Z,101236.66
2023-02-15T01:05:28.512Z,101230.06
2023-02-15T01:07:59.986Z,101230.59
2023-02-15T01:10:30.856Z,101231.06
2023-02-15T01:13:01.726Z,101227.03
2023-02-15T01:15:33.265Z,101228.88
2023-02-15T01:18:06.847Z,101227.84
2023-02-15T01:20:40.925Z,101230.91
2023-02-15T01:23:12.121Z,101226.47
2023-02-15T01:25:43.967Z,101233.53
2023-02-15T01:28:14.618Z,101234.88
2023-02-15T01:30:45.407Z,101234.53
2023-02-15T01:33:19.526Z,101227.97
2023-02-15T01:35:50.655Z,101231.00
2023-02-15T01:38:21.896Z,101227.75
2023-02-15T01:41:16.033Z,101233.66
2023-02-15T01:44:01.468Z,101222.03
2023-02-15T01:46:42.426Z,101222.53
2023-02-15T01:49:19.104Z,101218.81
2023-02-15T01:51:54.385Z,101225.38
2023-02-15T01:54:33.183Z,101215.94
2023-02-15T01:57:07.341Z,101228.91
2023-02-15T01:59:39.379Z,101220.63
2023-02-15T02:02:14.867Z,101222.16
2023-02-15T02:05:00.230Z,101222.16
2023-02-15T02:07:34.502Z,101213.19
2023-02-15T02:10:06.775Z,101207.81
2023-02-15T02:12:41.856Z,101194.81
2023-02-15T02:15:44.798Z,101195.50
2023-02-15T02:18:37.446Z,101191.28
2023-02-15T02:21:33.958Z,101200.69
2023-02-15T02:24:31.486Z,101186.06
2023-02-15T02:27:10.782Z,101181.81
2023-02-15T02:29:47.114Z,101180.78
2023-02-15T02:33:10.357Z,101187.50
2023-02-15T02:35:53.041Z,101186.16
2023-02-15T02:38:40.354Z,101174.38
2023-02-15T02:42:21.475Z,101167.25
2023-02-15T02:45:11.217Z,101177.69
2023-02-15T02:47:51.908Z,101169.03
2023-02-15T02:50:30.084Z,101161.22
2023-02-15T02:53:01.987Z,101164.06
2023-02-15T02:55:38.533Z,101164.06
2023-02-15T02:58:22.896Z,101168.81
2023-02-15T03:01:00.685Z,101159.94
2023-02-15T03:03:39.395Z,101164.63
2023-02-15T03:06:21.917Z,101158.50
2023-02-15T03:09:10.025Z,101149.03
2023-02-15T03:11:40.524Z,101157.72
2023-02-15T03:14:12.332Z,101156.69
2023-02-15T03:16:44.297Z,101149.63
2023-02-15T03:19:25.006Z,101147.44
2023-02-15T03:22:05.446Z,101139.09
2023-02-15T03:24:54.487Z,101142.63
2023-02-15T03:27:29.215Z,101142.47
2023-02-15T03:30:04.270Z,101144.13
2023-02-15T03:32:36.409Z,101140.22
2023-02-15T03:35:07.715Z,101132.69
2023-02-15T03:37:44.065Z,101136.03
2023-02-15T03:40:49.155Z,101125.50
2023-02-15T03:43:42.988Z,101121.09
2023-02-15T03:46:35.308Z,101114.31
2023-02-15T03:49:13.799Z,101105.09
2023-02-15T03:51:47.610Z,101093.56
2023-02-15T03:54:41.839Z,101097.41
2023-02-15T03:57:53.073Z,101089.66
2023-02-15T04:00:44.220Z,101079.72
2023-02-15T04:03:29.999Z,101084.44
2023-02-15T04:06:10.140Z,101081.63
2023-02-15T04:08:59.474Z,101073.72
2023-02-15T04:11:30.061Z,101076.94
2023-02-15T04:14:21.197Z,101074.31
2023-02-15T04:16:52.642Z,101069.25
2023-02-15T04:19:41.886Z,101061.88
2023-02-15T04:22:31.475Z,101065.78
2023-02-15T04:25:13.994Z,101052.47
2023-02-15T04:27:47.234Z,101067.28
2023-02-15T04:30:20.182Z,101057.94
2023-02-15T04:32:51.389Z,101054.03
2023-02-15T04:35:22.354Z,101043.84
2023-02-15T04:37:53.530Z,101042.47
2023-02-15T04:40:24.183Z,101033.03
2023-02-15T04:42:54.979Z,101039.25
2023-02-15T04:45:29.776Z,101026.84
2023-02-15T04:48:00.328Z,101026.44
2023-02-15T04:50:30.672Z,101015.66
2023-02-15T04:53:01.358Z,101012.31
2023-02-15T04:55:31.891Z,101010.97
2023-02-15T04:58:02.725Z,101005.66
2023-02-15T05:00:34.252Z,101009.25
2023-02-15T05:03:05.380Z,100997.47
2023-02-15T05:05:37.910Z,100988.56
2023-02-15T05:08:08.881Z,100984.03
2023-02-15T05:10:39.935Z,100985.38
2023-02-15T05:13:11.440Z,100979.34
2023-02-15T05:15:54.178Z,100974.16
2023-02-15T05:18:25.082Z,100969.22
2023-02-15T05:20:55.869Z,100956.94
2023-02-15T05:23:26.554Z,100967.59
2023-02-15T05:26:15.491Z,100954.25
2023-02-15T05:28:46.036Z,100934.66
2023-02-15T05:31:21.820Z,100934.72
2023-02-15T05:33:52.972Z,100942.41
2023-02-15T05:36:23.958Z,100929.25
2023-02-15T05:38:55.144Z,100918.06
2023-02-15T05:41:27.575Z,100918.03
2023-02-15T05:43:58.909Z,100923.91
2023-02-15T05:46:29.671Z,100921.81
2023-02-15T05:49:00.661Z,100902.81
2023-02-15T05:51:31.029Z,100903.88
2023-02-15T05:54:01.646Z,100907.63
2023-02-15T05:56:32.565Z,100906.81
2023-02-15T05:59:04.700Z,100895.56
2023-02-15T06:01:35.482Z,100888.00
2023-02-15T06:04:06.052Z,100892.84
2023-02-15T06:06:36.856Z,100879.47
2023-02-15T06:09:07.993Z,100884.03
2023-02-15T06:11:39.230Z,100871.94
2023-02-15T06:14:10.503Z,100889.88
2023-02-15T06:16:42.163Z,100866.31
2023-02-15T06:19:13.056Z,100880.94
2023-02-15T06:21:43.950Z,100878.00
2023-02-15T06:24:16.452Z,100884.47
2023-02-15T06:26:47.518Z,100880.72
2023-02-15T06:29:18.276Z,100874.25
2023-02-15T06:31:53.275Z,100880.13
2023-02-15T06:34:24.164Z,100874.06
2023-02-15T06:36:55.409Z,100872.38
2023-02-15T06:39:26.265Z,100855.91
2023-02-15T06:41:56.809Z,100858.81
2023-02-15T06:44:27.708Z,100863.00
2023-02-15T06:46:58.625Z,100870.06
2023-02-15T06:49:29.166Z,100871.75
2023-02-15T06:52:08.369Z,100861.94
2023-02-15T06:54:39.636Z,100864.44
2023-02-15T06:57:11.562Z,100862.50
2023-02-15T06:59:42.319Z,100860.44
2023-02-15T07:02:16.217Z,100860.00
2023-02-15T07:04:47.322Z,100869.13
2023-02-15T07:07:18.474Z,100862.44
2023-02-15T07:09:49.262Z,100856.63
2023-02-15T07:12:39.050Z,100862.84
2023-02-15T07:15:11.126Z,100871.19
2023-02-15T07:17:42.563Z,100888.28
2023-02-15T07:20:18.654Z,100865.34
2023-02-15T07:22:50.049Z,100860.97
2023-02-15T07:25:20.645Z,100876.59
2023-02-15T07:27:58.312Z,100859.84
2023-02-15T07:30:29.579Z,100873.59
2023-02-15T07:33:19.115Z,100874.63
2023-02-15T07:35:56.075Z,100889.00
2023-02-15T07:38:28.772Z,100879.81
2023-02-15T07:41:04.079Z,100890.22
2023-02-15T07:43:37.128Z,100876.47
2023-02-15T07:46:10.022Z,100898.16
2023-02-15T07:48:42.497Z,100887.50
2023-02-15T07:51:14.562Z,100897.69
2023-02-15T07:53:45.632Z,100890.38
2023-02-15T07:56:17.875Z,100887.03
2023-02-15T07:58:56.591Z,100908.50
2023-02-15T08:01:33.080Z,100902.63
2023-02-15T08:04:13.100Z,100905.97
2023-02-15T08:06:46.390Z,100903.03
2023-02-15T08:09:17.660Z,100917.81
2023-02-15T08:11:49.573Z,100924.28
2023-02-15T08:14:22.809Z,100922.59
2023-02-15T08:16:58.733Z,100925.50
2023-02-15T08:19:32.361Z,100932.16
2023-02-15T08:22:06.862Z,100934.66
2023-02-15T08:24:39.316Z,100935.44
2023-02-15T08:27:12.945Z,100945.88
2023-02-15T08:29:44.172Z,100940.84
2023-02-15T08:32:15.640Z,100947.06
2023-02-15T08:34:47.017Z,100946.41
2023-02-15T08:37:17.777Z,100951.63
2023-02-15T08:39:49.008Z,100948.72
2023-02-15T08:42:20.107Z,100957.88
2023-02-15T08:44:52.899Z,100965.75
2023-02-15T08:47:23.627Z,100965.69
2023-02-15T08:49:54.731Z,100974.00
2023-02-15T08:52:28.855Z,100973.16
2023-02-15T08:55:00.194Z,100969.00
2023-02-15T08:57:32.316Z,100976.06
2023-02-15T09:00:06.532Z,100977.25
2023-02-15T09:02:38.441Z,100976.84
2023-02-15T09:05:21.626Z,100979.16
2023-02-15T09:07:52.522Z,100973.50
2023-02-15T09:10:23.162Z,100982.66
2023-02-15T09:12:54.468Z,100990.94
2023-02-15T09:15:25.556Z,100992.56
2023-02-15T09:17:56.348Z,101000.44
2023-02-15T09:20:27.483Z,100991.28
2023-02-15T09:22:59.881Z,101010.88
2023-02-15T09:25:31.004Z,101008.47
2023-02-15T09:28:02.392Z,101005.31
2023-02-15T09:30:33.228Z,101018.19
2023-02-15T09:33:03.656Z,101017.91
2023-02-15T09:35:33.974Z,101031.34
2023-02-15T09:38:05.234Z,101028.19
2023-02-15T09:40:42.866Z,101046.41
2023-02-15T09:43:51.220Z,101043.88
2023-02-15T09:46:59.939Z,101047.59
2023-02-15T09:49:51.726Z,101052.84
2023-02-15T09:52:52.253Z,101049.94
2023-02-15T09:55:25.978Z,101055.44
2023-02-15T09:58:10.675Z,101054.41
2023-02-15T10:00:56.319Z,101050.69
2023-02-15T10:03:56.374Z,101061.13
2023-02-15T10:06:43.941Z,101065.06
2023-02-15T10:09:25.302Z,101068.59
2023-02-15T10:12:36.598Z,101067.28
2023-02-15T10:15:44.910Z,101064.31
2023-02-15T10:18:45.824Z,101061.81
2023-02-15T10:21:31.793Z,101065.91
2023-02-15T10:24:40.548Z,101078.66
2023-02-15T10:27:26.349Z,101065.50
2023-02-15T10:30:14.424Z,101068.13
2023-02-15T10:33:03.043Z,101069.69
2023-02-15T10:35:40.735Z,101063.28
2023-02-15T10:38:48.723Z,101070.25
2023-02-15T10:41:41.373Z,101067.56
2023-02-15T10:44:26.956Z,101071.66
2023-02-15T10:47:13.049Z,101069.97
2023-02-15T10:50:18.943Z,101075.09
2023-02-15T10:53:12.772Z,101081.72
2023-02-15T10:56:01.622Z,101084.59
2023-02-15T10:58:43.616Z,101082.91
2023-02-15T11:01:21.814Z,101086.66
2023-02-15T11:04:31.196Z,101085.63
2023-02-15T11:07:07.035Z,101094.94
2023-02-15T11:09:44.934Z,101101.53
2023-02-15T11:12:27.315Z,101094.09
2023-02-15T11:15:18.297Z,101095.31
2023-02-15T11:17:59.404Z,101116.94
2023-02-15T11:20:46.738Z,101099.88
2023-02-15T11:23:20.253Z,101097.56
2023-02-15T11:26:07.422Z,101097.56
2023-02-15T11:28:52.850Z,101118.41
2023-02-15T11:31:26.353Z,101114.03
2023-02-15T11:34:02.635Z,101109.84
2023-02-15T11:36:41.005Z,101120.28
2023-02-15T11:39:20.752Z,101124.66
2023-02-15T11:41:55.916Z,101123.44
2023-02-15T11:44:39.882Z,101125.31
2023-02-15T11:47:14.948Z,101132.41
2023-02-15T11:49:49.853Z,101132.56
2023-02-15T11:52:21.566Z,101139.19
2023-02-15T11:54:54.266Z,101141.59
2023-02-15T11:57:40.180Z,101142.41
2023-02-15T12:00:21.025Z,101149.84
2023-02-15T12:02:56.019Z,101143.63
2023-02-15T12:05:28.170Z,101151.06
2023-02-15T12:08:12.074Z,101150.06
2023-02-15T12:11:04.123Z,101153.13
2023-02-15T12:13:35.358Z,101147.81
2023-02-15T12:16:12.776Z,101148.53
2023-02-15T12:18:48.818Z,101155.38
2023-02-15T12:21:41.802Z,101160.88
2023-02-15T12:24:21.558Z,101164.97
2023-02-15T12:27:26.296Z,101175.25
2023-02-15T12:30:04.269Z,101168.69
2023-02-15T12:32:38.087Z,101171.22
2023-02-15T12:35:17.150Z,101171.94
2023-02-15T12:38:03.904Z,101177.34
2023-02-15T12:40:37.478Z,101186.78
2023-02-15T12:43:11.366Z,101166.84
2023-02-15T12:45:50.952Z,101178.31
2023-02-15T12:48:24.137Z,101181.38
2023-02-15T12:50:57.333Z,101190.19
2023-02-15T12:53:36.600Z,101193.38
2023-02-15T12:56:13.227Z,101193.19
2023-02-15T12:58:44.712Z,101205.69
2023-02-15T13:01:20.995Z,101207.34
2023-02-15T13:03:57.696Z,101210.41
2023-02-15T13:06:30.815Z,101207.72
2023-02-15T13:09:18.942Z,101219.19
2023-02-15T13:11:49.987Z,101218.31
2023-02-15T13:14:30.865Z,101212.47
2023-02-15T13:17:03.633Z,101218.22
2023-02-15T13:19:39.002Z,101221.75
2023-02-15T13:22:16.714Z,101225.31
2023-02-15T13:24:56.015Z,101219.25
2023-02-15T13:27:37.898Z,101228.00
2023-02-15T13:30:23.353Z,101231.72
2023-02-15T13:33:09.774Z,101231.22
2023-02-15T13:35:47.614Z,101234.47
2023-02-15T13:38:20.784Z,101236.16
2023-02-15T13:40:54.526Z,101236.84
2023-02-15T13:43:37.767Z,101245.59
2023-02-15T13:46:24.250Z,101238.88
2023-02-15T13:49:24.558Z,101242.25
2023-02-15T13:52:07.959Z,101236.19
2023-02-15T13:54:45.067Z,101245.31
2023-02-15T13:57:41.696Z,101249.69
2023-02-15T14:00:25.549Z,101250.75
2023-02-15T14:03:02.192Z,101253.81
2023-02-15T14:06:07.857Z,101252.78
2023-02-15T14:09:02.748Z,101253.16
2023-02-15T14:11:47.318Z,101253.16
2023-02-15T14:14:36.344Z,101243.06
2023-02-15T14:17:13.719Z,101240.72
2023-02-15T14:20:04.600Z,101240.53
2023-02-15T14:22:43.402Z,101238.03
2023-02-15T14:25:43.921Z,101241.72
2023-02-15T14:28:19.627Z,101235.16
2023-02-15T14:30:52.785Z,101236.84
2023-02-15T14:33:34.680Z,101234.16
2023-02-15T14:36:08.897Z,101232.00
2023-02-15T14:38:54.355Z,101236.56
2023-02-15T14:41:32.004Z,101233.00
2023-02-15T14:44:32.955Z,101225.78
2023-02-15T14:47:21.341Z,101237.75
2023-02-15T14:49:52.907Z,101235.41
2023-02-15T14:52:23.908Z,101225.97
2023-02-15T14:55:01.289Z,101235.94
2023-02-15T14:57:36.023Z,101228.38
2023-02-15T15:00:34.744Z,101236.63
2023-02-15T15:03:22.217Z,101230.03
2023-02-15T15:06:00.640Z,101220.59
2023-02-15T15:08:39.724Z,101234.06
2023-02-15T15:11:44.905Z,101219.25
2023-02-15T15:14:36.953Z,101228.69
2023-02-15T15:17:09.095Z,101230.59
2023-02-15T15:19:52.755Z,101228.56
2023-02-15T15:22:26.025Z,101217.25
2023-02-15T15:25:34.099Z,101230.94
2023-02-15T15:28:07.801Z,101233.63
2023-02-15T15:30:38.537Z,101233.44
2023-02-15T15:33:21.793Z,101224.69
2023-02-15T15:36:08.670Z,101220.16
2023-02-15T15:39:16.328Z,101226.38
2023-02-15T15:42:14.643Z,101222.19
2023-02-15T15:45:00.108Z,101231.28
2023-02-15T15:47:53.468Z,101234.16
2023-02-15T15:50:29.483Z,101229.75
2023-02-15T15:53:01.550Z,101241.56
2023-02-15T15:55:34.171Z,101230.13
2023-02-15T15:58:09.550Z,101237.84
2023-02-15T16:00:58.837Z,101237.53
2023-02-15T16:03:32.196Z,101235.84
2023-02-15T16:06:03.229Z,101233.16
2023-02-15T16:08:43.192Z,101226.09
2023-02-15T16:11:18.209Z,101224.41
2023-02-15T16:13:50.230Z,101223.06
2023-02-15T16:16:27.387Z,101219.34
2023-02-15T16:19:07.511Z,101211.63
2023-02-15T16:21:39.311Z,101205.06
2023-02-15T16:24:42.144Z,101200.16
2023-02-15T16:27:27.638Z,101195.47
2023-02-15T16:29:58.465Z,101194.28
2023-02-15T16:32:30.416Z,101200.84
2023-02-15T16:35:03.989Z,101197.16
2023-02-15T16:37:36.542Z,101204.56
2023-02-15T16:40:07.703Z,101197.19
2023-02-15T16:42:38.447Z,101207.66
2023-02-15T16:45:16.345Z,101204.25
2023-02-15T16:47:49.596Z,101199.38
2023-02-15T16:50:23.331Z,101193.31
2023-02-15T16:52:54.842Z,101195.69
2023-02-15T16:55:43.155Z,101195.69
2023-02-15T16:58:18.701Z,101180.38
2023-02-15T17:00:49.429Z,101177.84
2023-02-15T17:03:20.274Z,101177.34
2023-02-15T17:05:53.394Z,101182.75
2023-02-15T17:08:33.253Z,101187.28
2023-02-15T17:11:19.661Z,101188.13
2023-02-15T17:14:23.044Z,101186.44
2023-02-15T17:16:58.234Z,101170.97
2023-02-15T17:19:34.785Z,101166.75
2023-02-15T17:22:09.342Z,101171.31
2023-02-15T17:24:44.916Z,101171.81
2023-02-15T17:27:23.119Z,101169.97
2023-02-15T17:29:59.102Z,101167.28
2023-02-15T17:32:33.484Z,101168.28
2023-02-15T17:35:12.921Z,101172.00
2023-02-15T17:37:48.253Z,101172.34
2023-02-15T17:40:28.053Z,101165.75
2023-02-15T17:42:58.840Z,101171.31
2023-02-15T17:45:39.076Z,101167.78
2023-02-15T17:48:17.626Z,101152.63
2023-02-15T17:50:48.816Z,101145.72
2023-02-15T17:53:20.587Z,101137.81
2023-02-15T17:55:51.838Z,101153.31
2023-02-15T17:58:25.642Z,101146.06
2023-02-15T18:01:18.289Z,101147.25
2023-02-15T18:04:09.524Z,101146.41
2023-02-15T18:07:01.219Z,101142.03
2023-02-15T18:09:49.944Z,101142.19
2023-02-15T18:12:31.155Z,101148.25
2023-02-15T18:15:02.857Z,101141.03
2023-02-15T18:17:44.143Z,101137.47
2023-02-15T18:20:21.798Z,101141.03
2023-02-15T18:22:55.630Z,101129.94
2023-02-15T18:25:26.960Z,101135.47
2023-02-15T18:27:57.908Z,101135.47
2023-02-15T18:30:29.192Z,101129.25
2023-02-15T18:33:00.597Z,101129.25
2023-02-15T18:35:33.300Z,101123.88
2023-02-15T18:38:06.669Z,101132.09
2023-02-15T18:40:37.370Z,101131.28
2023-02-15T18:43:07.634Z,101135.81
2023-02-15T18:45:39.622Z,101124.19
2023-02-15T18:48:10.965Z,101120.81
2023-02-15T18:50:41.633Z,101118.78
2023-02-15T18:53:29.639Z,101118.47
2023-02-15T18:56:00.865Z,101122.16
2023-02-15T18:58:31.965Z,101114.94
2023-02-15T19:01:02.651Z,101109.72
2023-02-15T19:03:33.805Z,101114.09
2023-02-15T19:06:08.173Z,101118.13
2023-02-15T19:08:38.896Z,101108.88
2023-02-15T19:11:18.101Z,101104.50
2023-02-15T19:13:50.033Z,101103.66
2023-02-15T19:16:34.520Z,101099.97
2023-02-15T19:19:07.260Z,101096.78
2023-02-15T19:21:38.200Z,101099.47
2023-02-15T19:24:12.841Z,101105.88
2023-02-15T19:26:45.916Z,101117.81
2023-02-15T19:29:28.980Z,101118.81
2023-02-15T19:32:00.076Z,101111.06
2023-02-15T19:34:31.151Z,101127.91
2023-02-15T19:37:02.086Z,101112.09
2023-02-15T19:39:39.564Z,101125.88
2023-02-15T19:42:23.270Z,101127.75
2023-02-15T19:44:55.384Z,101122.03
2023-02-15T19:47:30.196Z,101121.84
2023-02-15T19:50:06.764Z,101124.88
2023-02-15T19:52:37.802Z,101136.66
2023-02-15T19:55:08.405Z,101133.13
2023-02-15T19:57:39.032Z,101130.59
2023-02-15T20:00:22.454Z,101127.75
2023-02-15T20:02:54.946Z,101129.91
2023-02-15T20:05:26.258Z,101132.59
2023-02-15T20:07:57.005Z,101137.31
2023-02-15T20:10:33.820Z,101131.09
2023-02-15T20:13:04.736Z,101127.41
2023-02-15T20:15:36.796Z,101126.88
2023-02-15T20:18:07.839Z,101132.13
2023-02-15T20:20:46.142Z,101129.44
2023-02-15T20:23:24.284Z,101136.50
2023-02-15T20:25:55.541Z,101142.69
2023-02-15T20:28:27.911Z,101136.66
2023-02-15T20:30:58.801Z,101135.63
2023-02-15T20:33:29.244Z,101144.72
2023-02-15T20:36:02.339Z,101146.59
2023-02-15T20:38:33.724Z,101143.88
2023-02-15T20:41:22.701Z,101138.66
2023-02-15T20:43:54.069Z,101147.75
2023-02-15T20:46:25.066Z,101135.47
2023-02-15T20:48:55.759Z,101141.00
2023-02-15T20:51:26.395Z,101143.69
2023-02-15T20:53:57.748Z,101147.25
2023-02-15T20:56:28.172Z,101142.03
2023-02-15T20:58:58.961Z,101136.63
2023-02-15T21:01:29.823Z,101134.28
2023-02-15T21:04:01.298Z,101142.34
2023-02-15T21:06:31.781Z,101154.13
2023-02-15T21:09:04.337Z,101166.75
2023-02-15T21:11:34.669Z,101158.50
2023-02-15T21:14:06.570Z,101156.81
2023-02-15T21:16:37.199Z,101166.22
2023-02-15T21:19:14.763Z,101166.91
2023-02-15T21:21:49.869Z,101159.16
2023-02-15T21:24:30.880Z,101164.22
2023-02-15T21:27:12.871Z,101166.91
2023-02-15T21:29:43.867Z,101162.53
2023-02-15T21:32:14.529Z,101175.31
2023-02-15T21:34:45.282Z,101176.16
2023-02-15T21:37:42.505Z,101172.28
2023-02-15T21:40:16.132Z,101176.16
2023-02-15T21:43:05.955Z,101178.16
2023-02-15T21:45:54.503Z,101178.97
2023-02-15T21:48:25.116Z,101183.69
2023-02-15T21:51:16.900Z,101182.66
2023-02-15T21:53:48.516Z,101179.81
2023-02-15T21:56:25.243Z,101171.91
2023-02-15T21:58:55.929Z,101184.34
2023-02-15T22:01:29.101Z,101193.44
2023-02-15T22:04:00.802Z,101195.44
2023-02-15T22:06:31.317Z,101199.66
2023-02-15T22:09:01.933Z,101203.38
2023-02-15T22:11:33.610Z,101213.28
2023-02-15T22:14:03.910Z,101216.13
2023-02-15T22:16:34.757Z,101216.97
2023-02-15T22:19:05.897Z,101209.56
2023-02-15T22:21:36.486Z,101215.28
2023-02-15T22:24:07.293Z,101224.53
2023-02-15T22:26:38.287Z,101226.38
2023-02-15T22:29:08.580Z,101224.34
2023-02-15T22:31:39.940Z,101227.22
2023-02-15T22:34:32.485Z,101235.97
2023-02-15T22:37:04.128Z,101228.06
2023-02-15T22:39:34.999Z,101229.75
2023-02-15T22:42:06.280Z,101236.81
2023-02-15T22:44:37.107Z,101236.13
2023-02-15T22:47:09.914Z,101231.59
2023-02-15T22:49:41.027Z,101236.13
2023-02-15T22:52:14.883Z,101248.56
2023-02-15T22:54:45.488Z,101244.88
2023-02-15T22:57:45.979Z,101240.72
2023-02-15T23:00:25.639Z,101242.19
2023-02-15T23:02:56.792Z,101252.94
2023-02-15T23:05:31.675Z,101258.31
2023-02-15T23:08:02.600Z,101258.00
2023-02-15T23:10:33.634Z,101254.31
2023-02-15T23:13:25.735Z,101246.78
2023-02-15T23:16:00.041Z,101253.19
2023-02-15T23:18:40.125Z,101264.44
2023-02-15T23:21:19.181Z,101266.78
2023-02-15T23:23:54.035Z,101274.47
2023-02-15T23:26:28.739Z,101271.63
2023-02-15T23:29:01.806Z,101272.47
2023-02-15T23:31:35.254Z,101274.00
2023-02-15T23:34:17.157Z,101285.47
2023-02-15T23:36:47.909Z,101285.47
2023-02-15T23:39:39.314Z,101290.00
2023-02-15T23:42:14.546Z,101291.84
2023-02-15T23:44:46.669Z,101295.91
2023-02-15T23:47:54.836Z,101301.47
2023-02-15T23:50:31.773Z,101307.81
2023-02-15T23:53:02.274Z,101306.16
2023-02-15T23:55:40.801Z,101309.06
2023-02-15T23:58:19.336Z,101306.84
